Terminal Aerodrome Forecast
Issued by NWS Tuscon, AZ

Home | Current Version | Previous Version | Text Only | Print | Product List | Glossary On
Versions: 1 2 3 4 5 6 7 8 9 10 11 12 13 14 15 16 17 18
000
FTUS45 KTWC 050746 AAA
TAFDUG
TAF AMD
KDUG 050746Z 0508/0606 33005KT P6SM VCSH SCT070 BKN100 OVC180
      TEMPO 0508/0510 VRB03KT 5SM BR SCT010 SCT100 OVC180
     FM051000 VRB04KT P6SM BKN100 OVC200
     FM051800 22006KT P6SM FEW070 SCT100 BKN200
     FM052000 27008KT P6SM VCSH BKN070 OVC180
     FM060400 03005KT P6SM BKN070 BKN180=

USA.gov is the U.S. government's official web portal to all federal, state and local government web resources and services.